createdAt,value
2019-05-17T00:01:29.671Z,99.90
2019-05-17T00:03:56.512Z,99.90
2019-05-17T00:06:22.660Z,99.90
2019-05-17T00:08:48.702Z,99.90
2019-05-17T00:11:16.666Z,99.90
2019-05-17T00:13:42.698Z,99.90
2019-05-17T00:16:08.943Z,99.90
2019-05-17T00:18:36.897Z,99.90
2019-05-17T00:21:02.920Z,99.90
2019-05-17T00:23:28.988Z,99.90
2019-05-17T00:25:56.410Z,99.90
2019-05-17T00:28:22.591Z,99.90
2019-05-17T00:30:48.624Z,99.90
2019-05-17T00:33:16.779Z,99.90
2019-05-17T00:35:42.620Z,99.90
2019-05-17T00:38:08.664Z,99.90
2019-05-17T00:40:36.655Z,99.90
2019-05-17T00:43:03.072Z,99.90
2019-05-17T00:45:29.140Z,99.90
2019-05-17T00:47:57.110Z,99.90
2019-05-17T00:50:23.152Z,99.90
2019-05-17T00:52:49.213Z,99.90
2019-05-17T00:55:17.430Z,99.90
2019-05-17T00:57:43.367Z,99.90
2019-05-17T01:00:09.639Z,99.90
2019-05-17T01:02:36.358Z,99.90
2019-05-17T01:05:06.376Z,99.90
2019-05-17T01:07:32.587Z,99.90
2019-05-17T01:09:58.647Z,99.90
2019-05-17T01:12:26.972Z,99.90
2019-05-17T01:14:52.639Z,99.90
2019-05-17T01:17:18.697Z,99.90
2019-05-17T01:19:47.014Z,99.90
2019-05-17T01:22:12.810Z,99.90
2019-05-17T01:24:38.856Z,99.90
2019-05-17T01:27:06.530Z,99.90
2019-05-17T01:29:32.874Z,99.90
2019-05-17T01:31:58.921Z,99.90
2019-05-17T01:34:27.082Z,99.90
2019-05-17T01:36:52.956Z,99.90
2019-05-17T01:39:21.474Z,99.90
2019-05-17T01:41:46.994Z,99.90
2019-05-17T01:44:13.089Z,99.90
2019-05-17T01:46:39.170Z,99.90
2019-05-17T01:49:06.864Z,99.90
2019-05-17T01:51:33.070Z,99.90
2019-05-17T01:53:59.133Z,99.90
2019-05-17T01:56:26.272Z,99.90
2019-05-17T01:58:52.457Z,99.90
2019-05-17T02:01:18.519Z,99.90
2019-05-17T02:03:46.752Z,99.90
2019-05-17T02:06:12.727Z,99.90
2019-05-17T02:08:38.784Z,99.90
2019-05-17T02:11:06.791Z,99.90
2019-05-17T02:13:32.780Z,99.90
2019-05-17T02:15:58.834Z,99.90
2019-05-17T02:18:26.601Z,99.90
2019-05-17T02:20:52.833Z,99.90
2019-05-17T02:23:18.875Z,99.90
2019-05-17T02:25:47.088Z,99.90
2019-05-17T02:28:12.914Z,99.90
2019-05-17T02:30:39.083Z,99.90
2019-05-17T02:33:05.426Z,99.90
2019-05-17T02:35:33.678Z,99.90
2019-05-17T02:38:02.611Z,99.90
2019-05-17T02:40:27.382Z,99.90
2019-05-17T02:42:53.714Z,99.90
2019-05-17T02:45:23.198Z,99.90
2019-05-17T02:47:48.041Z,99.90
2019-05-17T02:50:15.494Z,99.90
2019-05-17T02:52:43.865Z,99.90
2019-05-17T02:55:12.494Z,99.90
2019-05-17T02:57:37.842Z,99.90
2019-05-17T03:00:05.095Z,99.90
2019-05-17T03:02:34.145Z,99.90
2019-05-17T03:04:59.143Z,99.90
2019-05-17T03:07:25.190Z,99.90
2019-05-17T03:09:53.423Z,99.90
2019-05-17T03:12:19.183Z,99.90
2019-05-17T03:14:45.221Z,99.90
2019-05-17T03:17:14.136Z,99.90
2019-05-17T03:19:39.220Z,99.90
2019-05-17T03:22:07.843Z,99.90
2019-05-17T03:24:33.410Z,99.90
2019-05-17T03:27:02.827Z,99.90
2019-05-17T03:29:28.313Z,99.90
2019-05-17T03:32:00.408Z,99.90
2019-05-17T03:34:26.264Z,99.90
2019-05-17T03:36:56.137Z,99.90
2019-05-17T03:39:18.902Z,99.90
2019-05-17T03:41:45.144Z,99.90
2019-05-17T03:44:13.557Z,99.90
2019-05-17T03:46:42.358Z,99.90
2019-05-17T03:49:07.386Z,99.90
2019-05-17T03:51:33.596Z,99.90
2019-05-17T03:54:02.431Z,99.90
2019-05-17T03:56:27.810Z,99.90
2019-05-17T03:58:53.875Z,99.90
2019-05-17T04:01:22.948Z,99.90
2019-05-17T04:03:47.974Z,99.90
2019-05-17T04:06:14.022Z,99.90
2019-05-17T04:08:42.493Z,99.90
2019-05-17T04:11:20.249Z,99.90
2019-05-17T04:13:36.076Z,99.90
2019-05-17T04:16:08.371Z,99.90
2019-05-17T04:18:33.641Z,99.90
2019-05-17T04:20:59.263Z,99.90
2019-05-17T04:23:25.312Z,99.90
2019-05-17T04:25:53.092Z,99.90
2019-05-17T04:28:22.633Z,99.90
2019-05-17T04:30:47.289Z,99.90
2019-05-17T04:33:13.342Z,99.90
2019-05-17T04:35:39.412Z,99.90
2019-05-17T04:38:05.478Z,99.90
2019-05-17T04:40:34.075Z,99.90
2019-05-17T04:42:59.526Z,99.90
2019-05-17T04:45:25.582Z,99.90
2019-05-17T04:47:52.932Z,99.90
2019-05-17T04:50:19.302Z,99.90
2019-05-17T04:52:45.390Z,99.90
2019-05-17T04:55:13.375Z,99.90
2019-05-17T04:57:43.303Z,99.90
2019-05-17T05:00:08.771Z,99.90
2019-05-17T05:02:34.920Z,99.90
2019-05-17T05:05:03.423Z,99.90
2019-05-17T05:07:29.038Z,99.90
2019-05-17T05:09:55.097Z,99.90
2019-05-17T05:12:22.868Z,99.90
2019-05-17T05:14:49.097Z,99.90
2019-05-17T05:17:15.161Z,99.90
2019-05-17T05:19:42.236Z,99.90
2019-05-17T05:22:08.581Z,99.90
2019-05-17T05:24:34.630Z,99.90
2019-05-17T05:27:02.594Z,99.90
2019-05-17T05:29:28.643Z,99.90
2019-05-17T05:31:54.752Z,99.90
2019-05-17T05:34:21.576Z,99.90
2019-05-17T05:36:47.923Z,99.90
2019-05-17T05:39:13.972Z,99.90
2019-05-17T05:41:42.522Z,99.90
2019-05-17T05:44:08.101Z,99.90
2019-05-17T05:46:34.172Z,99.90
2019-05-17T05:49:01.731Z,99.90
2019-05-17T05:51:28.176Z,99.90
2019-05-17T05:53:54.230Z,99.90
2019-05-17T05:56:22.006Z,99.90
2019-05-17T05:58:48.230Z,99.90
2019-05-17T06:01:14.277Z,99.90
2019-05-17T06:03:41.429Z,99.90
2019-05-17T06:06:07.592Z,99.90
2019-05-17T06:08:33.644Z,99.90
2019-05-17T06:11:01.950Z,99.90
2019-05-17T06:13:27.669Z,99.90
2019-05-17T06:15:53.717Z,99.90
2019-05-17T06:18:19.777Z,99.90
2019-05-17T06:20:45.820Z,99.90
2019-05-17T06:23:12.473Z,99.90
2019-05-17T06:25:38.721Z,99.90
2019-05-17T06:28:04.774Z,99.90
2019-05-17T06:30:32.371Z,99.90
2019-05-17T06:32:58.697Z,99.90
2019-05-17T06:35:24.765Z,99.90
2019-05-17T06:37:50.816Z,99.90
2019-05-17T06:40:17.274Z,99.90
2019-05-17T06:42:45.543Z,99.90
2019-05-17T06:45:13.186Z,99.90
2019-05-17T06:47:39.281Z,99.90
2019-05-17T06:50:05.929Z,99.90
2019-05-17T06:52:32.675Z,99.90
2019-05-17T06:54:58.960Z,99.90
2019-05-17T06:57:25.122Z,99.90
2019-05-17T06:59:51.164Z,99.90
2019-05-17T07:02:19.645Z,99.90
2019-05-17T07:04:45.160Z,99.90
2019-05-17T07:07:24.932Z,99.90
2019-05-17T07:09:50.998Z,99.90
2019-05-17T07:12:17.036Z,99.90
2019-05-17T07:14:43.089Z,99.90
2019-05-17T07:17:09.848Z,99.90
2019-05-17T07:19:36.002Z,99.90
2019-05-17T07:22:02.137Z,99.90
2019-05-17T07:24:29.997Z,99.90
2019-05-17T07:26:56.154Z,99.90
2019-05-17T07:29:22.200Z,99.90
2019-05-17T07:31:49.770Z,99.90
2019-05-17T07:34:15.906Z,99.90
2019-05-17T07:36:41.974Z,99.90
2019-05-17T07:39:10.598Z,99.90
2019-05-17T07:41:36.003Z,99.90
2019-05-17T07:44:02.037Z,99.90
2019-05-17T07:46:29.448Z,99.90
2019-05-17T07:48:55.674Z,99.90
2019-05-17T07:51:21.713Z,99.90
2019-05-17T07:53:49.555Z,99.90
2019-05-17T07:56:15.722Z,99.90
2019-05-17T07:58:41.776Z,99.90
2019-05-17T08:01:10.058Z,99.90
2019-05-17T08:03:35.817Z,99.90
2019-05-17T08:06:01.862Z,99.90
2019-05-17T08:08:30.951Z,99.90
2019-05-17T08:10:55.897Z,99.90
2019-05-17T08:13:29.894Z,99.90
2019-05-17T08:15:50.250Z,99.90
2019-05-17T08:18:16.456Z,99.90
2019-05-17T08:20:42.524Z,99.90
2019-05-17T08:23:10.518Z,99.90
2019-05-17T08:25:49.669Z,99.90
2019-05-17T08:28:05.089Z,99.90
2019-05-17T08:30:31.141Z,99.90
2019-05-17T08:32:57.184Z,99.90
2019-05-17T08:35:23.225Z,99.90
2019-05-17T08:37:49.915Z,99.90
2019-05-17T08:40:16.337Z,99.90
2019-05-17T08:42:42.402Z,99.90
2019-05-17T08:45:09.733Z,99.90
2019-05-17T08:47:36.010Z,99.90
2019-05-17T08:50:05.483Z,99.90
2019-05-17T08:52:31.526Z,99.90
2019-05-17T08:55:00.157Z,99.90
2019-05-17T08:57:25.530Z,99.90
2019-05-17T08:59:51.593Z,99.90
2019-05-17T09:02:19.741Z,99.90
2019-05-17T09:04:45.612Z,99.90
2019-05-17T09:07:11.644Z,99.90
2019-05-17T09:09:39.432Z,99.90
2019-05-17T09:12:05.665Z,99.90
2019-05-17T09:14:31.712Z,99.90
2019-05-17T09:17:00.244Z,99.90
2019-05-17T09:19:25.724Z,99.90
2019-05-17T09:21:51.799Z,99.90
2019-05-17T09:24:19.478Z,99.90
2019-05-17T09:26:45.675Z,99.90
2019-05-17T09:29:11.738Z,99.90
2019-05-17T09:31:40.258Z,99.90
2019-05-17T09:34:05.831Z,99.90
2019-05-17T09:36:31.874Z,99.90
2019-05-17T09:38:59.926Z,99.90
2019-05-17T09:41:25.874Z,99.90
2019-05-17T09:43:51.939Z,99.90
2019-05-17T09:46:19.686Z,99.90
2019-05-17T09:48:47.070Z,99.90
2019-05-17T09:51:13.418Z,99.90
2019-05-17T09:53:40.157Z,99.90
2019-05-17T09:56:06.337Z,99.90
2019-05-17T09:58:32.416Z,99.90
2019-05-17T10:01:01.046Z,99.90
2019-05-17T10:03:26.432Z,99.90
2019-05-17T10:05:52.489Z,99.90
2019-05-17T10:08:18.537Z,99.70
2019-05-17T10:10:44.595Z,99.90
2019-05-17T10:13:10.644Z,99.90
2019-05-17T10:15:37.493Z,99.90
2019-05-17T10:18:03.561Z,99.90
2019-05-17T10:20:29.608Z,99.90
2019-05-17T10:22:55.685Z,99.90
2019-05-17T10:25:21.737Z,99.10
2019-05-17T10:27:49.670Z,99.20
2019-05-17T10:30:15.976Z,99.90
2019-05-17T10:32:42.016Z,99.90
2019-05-17T10:35:08.771Z,99.00
2019-05-17T10:37:34.816Z,98.70
2019-05-17T10:40:00.887Z,98.90
2019-05-17T10:42:26.947Z,99.90
2019-05-17T10:44:54.785Z,98.20
2019-05-17T10:47:20.940Z,99.00
2019-05-17T10:49:49.491Z,97.20
2019-05-17T10:52:14.985Z,95.60
2019-05-17T10:54:41.120Z,97.30
2019-05-17T10:57:07.173Z,94.70
2019-05-17T10:59:33.212Z,95.60
2019-05-17T11:01:59.791Z,95.50
2019-05-17T11:04:26.024Z,95.10
2019-05-17T11:06:52.092Z,93.00
2019-05-17T11:09:20.587Z,95.50
2019-05-17T11:11:46.112Z,92.40
2019-05-17T11:14:12.166Z,90.30
2019-05-17T11:16:38.203Z,93.70
2019-05-17T11:19:04.355Z,92.60
2019-05-17T11:21:30.402Z,91.90
2019-05-17T11:23:56.465Z,88.50
2019-05-17T11:26:22.513Z,94.70
2019-05-17T11:28:48.587Z,91.40
2019-05-17T11:31:14.630Z,91.20
2019-05-17T11:33:40.691Z,87.50
2019-05-17T11:36:06.732Z,88.80
2019-05-17T11:38:32.777Z,90.30
2019-05-17T11:40:58.842Z,89.10
2019-05-17T11:43:24.979Z,89.80
2019-05-17T11:45:51.057Z,86.10
2019-05-17T11:48:17.107Z,81.70
2019-05-17T11:50:43.168Z,78.10
2019-05-17T11:53:09.202Z,81.70
2019-05-17T11:55:35.772Z,76.90
2019-05-17T11:58:02.013Z,79.00
2019-05-17T12:00:28.764Z,78.60
2019-05-17T12:02:54.815Z,82.10
2019-05-17T12:05:20.863Z,83.70
2019-05-17T12:07:46.922Z,84.10
2019-05-17T12:10:13.073Z,83.00
2019-05-17T12:12:39.239Z,80.40
2019-05-17T12:15:06.989Z,80.20
2019-05-17T12:17:33.040Z,80.30
2019-05-17T12:19:59.086Z,80.80
2019-05-17T12:22:25.140Z,76.20
2019-05-17T12:24:51.188Z,75.00
2019-05-17T12:27:17.245Z,71.10
2019-05-17T12:29:43.318Z,72.80
2019-05-17T12:32:15.927Z,66.80
2019-05-17T12:34:37.330Z,69.10
2019-05-17T12:37:03.575Z,68.70
2019-05-17T12:39:29.631Z,66.70
2019-05-17T12:42:21.761Z,62.50
2019-05-17T12:44:47.817Z,65.50
2019-05-17T12:47:13.882Z,60.00
2019-05-17T12:49:39.938Z,58.20
2019-05-17T12:52:05.983Z,58.80
2019-05-17T12:54:32.045Z,63.40
2019-05-17T12:56:58.421Z,58.90
2019-05-17T12:59:24.464Z,61.50
2019-05-17T13:01:50.513Z,57.90
2019-05-17T13:04:16.618Z,57.80
2019-05-17T13:06:42.677Z,55.80
2019-05-17T13:09:08.740Z,57.80
2019-05-17T13:11:34.781Z,58.40
2019-05-17T13:14:00.825Z,52.90
2019-05-17T13:16:26.889Z,55.60
2019-05-17T13:18:52.965Z,53.90
2019-05-17T13:21:19.094Z,56.10
2019-05-17T13:23:45.143Z,55.70
2019-05-17T13:26:11.188Z,55.60
2019-05-17T13:28:37.249Z,54.50
2019-05-17T13:31:03.287Z,56.10
2019-05-17T13:33:29.456Z,61.00
2019-05-17T13:35:55.592Z,58.10
2019-05-17T13:38:21.660Z,57.90
2019-05-17T13:40:47.721Z,59.20
2019-05-17T13:43:13.892Z,58.30
2019-05-17T13:45:43.539Z,62.60
2019-05-17T13:48:08.034Z,59.20
2019-05-17T13:50:34.108Z,57.70
2019-05-17T13:53:00.245Z,58.80
2019-05-17T13:55:26.316Z,61.50
2019-05-17T13:57:52.376Z,60.30
2019-05-17T14:00:18.709Z,60.00
2019-05-17T14:02:44.768Z,59.30
2019-05-17T14:05:11.417Z,59.80
2019-05-17T14:07:37.473Z,58.40
2019-05-17T14:10:06.984Z,55.90
2019-05-17T14:12:33.036Z,59.40
2019-05-17T14:14:59.113Z,55.30
2019-05-17T14:17:25.184Z,54.50
2019-05-17T14:19:51.316Z,53.60
2019-05-17T14:22:17.372Z,52.60
2019-05-17T14:24:43.421Z,54.60
2019-05-17T14:27:09.543Z,52.80
2019-05-17T14:29:35.770Z,53.30
2019-05-17T14:32:02.259Z,53.50
2019-05-17T14:34:28.496Z,51.70
2019-05-17T14:36:54.561Z,52.50
2019-05-17T14:39:20.697Z,54.30
2019-05-17T14:41:46.773Z,53.90
2019-05-17T14:44:12.824Z,56.10
2019-05-17T14:46:38.914Z,55.80
2019-05-17T14:49:04.985Z,55.70
2019-05-17T14:51:31.116Z,57.50
2019-05-17T14:53:57.187Z,57.80
2019-05-17T14:56:23.229Z,58.40
2019-05-17T14:58:49.303Z,60.10
2019-05-17T15:01:15.332Z,61.20
2019-05-17T15:03:41.394Z,63.10
2019-05-17T15:06:07.433Z,61.80
2019-05-17T15:08:33.493Z,64.00
2019-05-17T15:10:59.537Z,64.10
2019-05-17T15:13:25.604Z,64.50
2019-05-17T15:15:51.649Z,68.40
2019-05-17T15:18:17.712Z,67.80
2019-05-17T15:20:43.747Z,65.30
2019-05-17T15:23:09.801Z,65.10
2019-05-17T15:25:35.851Z,64.00
2019-05-17T15:28:03.487Z,65.10
2019-05-17T15:30:29.926Z,66.30
2019-05-17T15:32:55.968Z,69.50
2019-05-17T15:35:22.393Z,66.80
2019-05-17T15:37:48.548Z,67.50
2019-05-17T15:40:14.713Z,67.70
2019-05-17T15:42:44.854Z,66.90
2019-05-17T15:45:08.775Z,70.50
2019-05-17T15:47:34.900Z,69.80
2019-05-17T15:50:01.032Z,68.80
2019-05-17T15:52:27.104Z,67.40
2019-05-17T15:54:53.438Z,66.90
2019-05-17T15:57:19.489Z,68.20
2019-05-17T15:59:45.554Z,66.70
2019-05-17T16:02:11.627Z,67.60
2019-05-17T16:04:37.677Z,63.90
2019-05-17T16:07:03.789Z,59.80
2019-05-17T16:09:29.915Z,58.60
2019-05-17T16:11:55.960Z,59.20
2019-05-17T16:14:22.351Z,59.40
2019-05-17T16:16:48.407Z,58.30
2019-05-17T16:19:14.472Z,58.50
2019-05-17T16:21:40.521Z,59.90
2019-05-17T16:24:06.562Z,61.60
2019-05-17T16:26:32.631Z,62.40
2019-05-17T16:28:58.673Z,62.80
2019-05-17T16:31:24.734Z,62.00
2019-05-17T16:33:51.098Z,63.40
2019-05-17T16:36:17.548Z,63.00
2019-05-17T16:38:43.592Z,62.90
2019-05-17T16:41:09.657Z,62.70
2019-05-17T16:43:35.745Z,62.90
2019-05-17T16:46:01.789Z,62.50
2019-05-17T16:48:27.861Z,63.90
2019-05-17T16:50:53.889Z,65.00
2019-05-17T16:53:19.952Z,64.20
2019-05-17T16:55:45.998Z,64.50
2019-05-17T16:58:12.156Z,67.50
2019-05-17T17:00:42.399Z,65.30
2019-05-17T17:03:08.462Z,65.40
2019-05-17T17:05:34.517Z,64.70
2019-05-17T17:08:00.563Z,66.40
2019-05-17T17:10:26.645Z,67.30
2019-05-17T17:12:52.691Z,68.70
2019-05-17T17:15:18.952Z,70.60
2019-05-17T17:17:45.010Z,69.60
2019-05-17T17:20:11.690Z,69.50
2019-05-17T17:22:37.729Z,70.50
2019-05-17T17:25:05.584Z,70.90
2019-05-17T17:27:31.642Z,71.30
2019-05-17T17:29:57.712Z,73.10
2019-05-17T17:32:23.764Z,73.00
2019-05-17T17:34:49.809Z,73.90
2019-05-17T17:37:15.889Z,73.90
2019-05-17T17:39:41.954Z,75.40
2019-05-17T17:42:08.032Z,75.50
2019-05-17T17:44:34.081Z,75.00
2019-05-17T17:47:00.131Z,76.60
2019-05-17T17:49:26.202Z,76.80
2019-05-17T17:51:52.252Z,76.20
2019-05-17T17:54:18.317Z,77.10
2019-05-17T17:56:44.356Z,77.70
2019-05-17T17:59:10.419Z,78.80
2019-05-17T18:01:36.474Z,78.50
2019-05-17T18:04:02.632Z,79.00
2019-05-17T18:06:28.678Z,79.00
2019-05-17T18:08:54.752Z,80.20
2019-05-17T18:11:20.798Z,79.80
2019-05-17T18:13:46.861Z,80.30
2019-05-17T18:16:13.029Z,81.00
2019-05-17T18:18:39.184Z,80.90
2019-05-17T18:21:05.409Z,81.80
2019-05-17T18:23:31.609Z,81.90
2019-05-17T18:25:58.052Z,82.80
2019-05-17T18:28:24.302Z,83.50
2019-05-17T18:30:50.363Z,83.70
2019-05-17T18:33:16.512Z,84.30
2019-05-17T18:35:42.567Z,84.20
2019-05-17T18:38:08.732Z,85.80
2019-05-17T18:40:34.791Z,87.40
2019-05-17T18:43:01.058Z,87.00
2019-05-17T18:45:27.500Z,87.00
2019-05-17T18:47:53.562Z,88.80
2019-05-17T18:50:21.515Z,88.90
2019-05-17T18:52:47.601Z,89.80
2019-05-17T18:55:13.868Z,90.20
2019-05-17T18:57:40.012Z,90.80
2019-05-17T19:00:07.669Z,90.80
2019-05-17T19:02:33.713Z,90.70
2019-05-17T19:04:59.772Z,91.30
2019-05-17T19:07:25.829Z,91.20
2019-05-17T19:09:51.884Z,91.70
2019-05-17T19:12:18.048Z,92.10
2019-05-17T19:14:44.109Z,92.60
2019-05-17T19:17:10.154Z,93.10
2019-05-17T19:19:36.216Z,93.80
2019-05-17T19:22:02.361Z,93.90
2019-05-17T19:24:28.532Z,94.10
2019-05-17T19:26:54.589Z,94.80
2019-05-17T19:29:20.667Z,95.30
2019-05-17T19:31:46.713Z,96.10
2019-05-17T19:34:12.805Z,96.80
2019-05-17T19:36:41.499Z,97.60
2019-05-17T19:39:06.821Z,98.60
2019-05-17T19:41:32.949Z,99.10
2019-05-17T19:43:59.040Z,99.60
2019-05-17T19:46:25.168Z,99.90
2019-05-17T19:48:51.449Z,99.90
2019-05-17T19:51:17.490Z,99.90
2019-05-17T19:53:43.557Z,99.90
2019-05-17T19:56:09.617Z,99.90
2019-05-17T19:58:35.687Z,99.90
2019-05-17T20:01:01.782Z,99.90
2019-05-17T20:03:27.949Z,99.90
2019-05-17T20:05:53.990Z,99.90
2019-05-17T20:08:20.075Z,99.90
2019-05-17T20:10:46.129Z,99.90
2019-05-17T20:13:12.169Z,99.90
2019-05-17T20:15:38.244Z,99.90
2019-05-17T20:18:04.314Z,99.90
2019-05-17T20:20:30.447Z,99.90
2019-05-17T20:22:56.500Z,99.90
2019-05-17T20:25:22.545Z,99.90
2019-05-17T20:27:48.592Z,99.90
2019-05-17T20:30:15.177Z,99.90
2019-05-17T20:32:41.221Z,99.90
2019-05-17T20:35:07.814Z,99.90
2019-05-17T20:37:33.858Z,99.90
2019-05-17T20:39:59.915Z,99.90
2019-05-17T20:42:26.059Z,99.90
2019-05-17T20:44:52.116Z,99.90
2019-05-17T20:47:18.183Z,99.90
2019-05-17T20:49:44.230Z,99.90
2019-05-17T20:52:13.116Z,99.90
2019-05-17T20:54:39.177Z,99.90
2019-05-17T20:57:05.229Z,99.90
2019-05-17T20:59:31.397Z,99.90
2019-05-17T21:01:57.445Z,99.90
2019-05-17T21:04:23.518Z,99.90
2019-05-17T21:06:49.560Z,99.90
2019-05-17T21:09:15.600Z,99.90
2019-05-17T21:11:41.660Z,99.90
2019-05-17T21:14:07.717Z,99.90
2019-05-17T21:16:33.766Z,99.90
2019-05-17T21:18:59.820Z,99.90
2019-05-17T21:21:25.878Z,99.90
2019-05-17T21:23:51.918Z,99.90
2019-05-17T21:26:17.978Z,99.90
2019-05-17T21:28:47.059Z,99.90
2019-05-17T21:31:11.998Z,99.90
2019-05-17T21:33:38.064Z,99.90
2019-05-17T21:36:04.513Z,99.90
2019-05-17T21:38:30.557Z,99.90
2019-05-17T21:40:56.724Z,99.90
2019-05-17T21:43:22.776Z,99.90
2019-05-17T21:46:02.544Z,99.90
2019-05-17T21:48:16.793Z,99.90
2019-05-17T21:50:42.843Z,99.90
2019-05-17T21:53:08.912Z,99.90
2019-05-17T21:55:34.965Z,99.90
2019-05-17T21:58:01.009Z,99.90
2019-05-17T22:00:50.893Z,99.90
2019-05-17T22:03:16.925Z,99.90
2019-05-17T22:05:42.993Z,99.90
2019-05-17T22:08:09.067Z,99.90
2019-05-17T22:10:35.121Z,99.90
2019-05-17T22:13:01.165Z,99.90
2019-05-17T22:15:27.227Z,99.90
2019-05-17T22:17:53.271Z,99.90
2019-05-17T22:20:19.313Z,99.90
2019-05-17T22:22:45.370Z,99.90
2019-05-17T22:25:11.516Z,99.90
2019-05-17T22:27:37.579Z,99.90
2019-05-17T22:30:07.377Z,99.90
2019-05-17T22:32:33.533Z,99.90
2019-05-17T22:34:59.590Z,99.90
2019-05-17T22:37:25.641Z,99.90
2019-05-17T22:39:51.744Z,99.90
2019-05-17T22:42:17.796Z,99.90
2019-05-17T22:44:43.861Z,99.90
2019-05-17T22:47:09.938Z,99.90
2019-05-17T22:49:35.990Z,99.90
2019-05-17T22:52:02.052Z,99.90
2019-05-17T22:54:28.095Z,99.90
2019-05-17T22:56:54.146Z,99.90
2019-05-17T22:59:20.207Z,99.90
2019-05-17T23:01:46.250Z,99.90
2019-05-17T23:04:12.323Z,99.90
2019-05-17T23:06:38.465Z,99.90
2019-05-17T23:09:05.028Z,99.90
2019-05-17T23:11:31.072Z,99.90
2019-05-17T23:13:57.120Z,99.90
2019-05-17T23:16:23.184Z,99.90
2019-05-17T23:19:07.762Z,99.90
2019-05-17T23:21:33.964Z,99.90
2019-05-17T23:24:00.018Z,99.90
2019-05-17T23:26:26.069Z,99.90
2019-05-17T23:28:52.114Z,99.90
2019-05-17T23:31:18.189Z,99.90
2019-05-17T23:33:44.337Z,99.90
2019-05-17T23:36:10.409Z,99.90
2019-05-17T23:38:36.451Z,99.90
2019-05-17T23:41:02.520Z,99.90
2019-05-17T23:43:28.561Z,99.90
2019-05-17T23:45:54.620Z,99.90
2019-05-17T23:48:20.680Z,99.90
2019-05-17T23:50:46.723Z,99.90
2019-05-17T23:53:12.873Z,99.90
2019-05-17T23:55:38.933Z,99.90
2019-05-17T23:58:05.038Z,99.90
